sensor_id;sensor_type;location;lat;lon;timestamp;P1;durP1;ratioP1;P2;durP2;ratioP2
56299;SDS011;42209;6.376;-10.782;2023-08-06T00:00:56;3.53;;;1.10;;
56299;SDS011;42209;6.376;-10.782;2023-08-06T00:03:25;2.13;;;1.20;;
56299;SDS011;42209;6.376;-10.782;2023-08-06T00:05:53;1.70;;;0.93;;
56299;SDS011;42209;6.376;-10.782;2023-08-06T00:10:50;1.63;;;1.02;;
56299;SDS011;42209;6.376;-10.782;2023-08-06T00:13:19;2.05;;;1.30;;
56299;SDS011;42209;6.376;-10.782;2023-08-06T00:15:48;2.03;;;1.30;;
56299;SDS011;42209;6.376;-10.782;2023-08-06T00:21:17;2.40;;;1.30;;
56299;SDS011;42209;6.376;-10.782;2023-08-06T00:23:46;1.95;;;1.17;;
56299;SDS011;42209;6.376;-10.782;2023-08-06T00:26:14;1.35;;;1.02;;
56299;SDS011;42209;6.376;-10.782;2023-08-06T00:28:43;1.70;;;1.20;;
56299;SDS011;42209;6.376;-10.782;2023-08-06T00:31:12;1.90;;;1.25;;
56299;SDS011;42209;6.376;-10.782;2023-08-06T00:33:40;1.80;;;1.13;;
56299;SDS011;42209;6.376;-10.782;2023-08-06T00:36:09;2.25;;;1.63;;
56299;SDS011;42209;6.376;-10.782;2023-08-06T00:38:37;1.60;;;1.23;;
56299;SDS011;42209;6.376;-10.782;2023-08-06T00:41:06;1.23;;;1.00;;
56299;SDS011;42209;6.376;-10.782;2023-08-06T00:43:36;1.85;;;1.02;;
56299;SDS011;42209;6.376;-10.782;2023-08-06T00:46:04;2.35;;;1.10;;
56299;SDS011;42209;6.376;-10.782;2023-08-06T00:48:33;1.70;;;1.13;;
56299;SDS011;42209;6.376;-10.782;2023-08-06T00:51:01;1.92;;;1.30;;
56299;SDS011;42209;6.376;-10.782;2023-08-06T00:53:31;1.35;;;1.05;;
56299;SDS011;42209;6.376;-10.782;2023-08-06T00:58:27;1.67;;;0.80;;
56299;SDS011;42209;6.376;-10.782;2023-08-06T01:00:56;3.38;;;1.00;;
56299;SDS011;42209;6.376;-10.782;2023-08-06T01:03:24;3.90;;;1.23;;
56299;SDS011;42209;6.376;-10.782;2023-08-06T01:05:53;1.30;;;0.93;;
56299;SDS011;42209;6.376;-10.782;2023-08-06T01:08:30;1.98;;;0.93;;
56299;SDS011;42209;6.376;-10.782;2023-08-06T01:11:07;2.92;;;1.00;;
56299;SDS011;42209;6.376;-10.782;2023-08-06T01:16:35;1.52;;;0.80;;
56299;SDS011;42209;6.376;-10.782;2023-08-06T01:19:15;1.77;;;1.08;;
56299;SDS011;42209;6.376;-10.782;2023-08-06T01:21:46;1.95;;;1.10;;
56299;SDS011;42209;6.376;-10.782;2023-08-06T01:24:16;1.95;;;1.00;;
56299;SDS011;42209;6.376;-10.782;2023-08-06T01:26:59;2.25;;;1.35;;
56299;SDS011;42209;6.376;-10.782;2023-08-06T01:29:43;1.15;;;0.85;;
56299;SDS011;42209;6.376;-10.782;2023-08-06T01:32:24;2.92;;;1.05;;
56299;SDS011;42209;6.376;-10.782;2023-08-06T01:34:53;2.17;;;0.70;;
56299;SDS011;42209;6.376;-10.782;2023-08-06T01:37:22;2.28;;;1.17;;
56299;SDS011;42209;6.376;-10.782;2023-08-06T01:42:19;1.98;;;1.15;;
56299;SDS011;42209;6.376;-10.782;2023-08-06T01:44:48;1.30;;;0.70;;
56299;SDS011;42209;6.376;-10.782;2023-08-06T01:47:16;2.05;;;1.08;;
56299;SDS011;42209;6.376;-10.782;2023-08-06T01:52:13;2.25;;;0.68;;
56299;SDS011;42209;6.376;-10.782;2023-08-06T01:54:41;1.50;;;0.80;;
56299;SDS011;42209;6.376;-10.782;2023-08-06T01:57:10;1.45;;;0.95;;
56299;SDS011;42209;6.376;-10.782;2023-08-06T01:59:38;2.45;;;0.75;;
56299;SDS011;42209;6.376;-10.782;2023-08-06T02:04:35;2.08;;;0.82;;
56299;SDS011;42209;6.376;-10.782;2023-08-06T02:07:04;1.25;;;0.70;;
56299;SDS011;42209;6.376;-10.782;2023-08-06T02:09:33;0.85;;;0.50;;
56299;SDS011;42209;6.376;-10.782;2023-08-06T02:12:01;1.95;;;0.88;;
56299;SDS011;42209;6.376;-10.782;2023-08-06T02:14:30;1.48;;;0.80;;
56299;SDS011;42209;6.376;-10.782;2023-08-06T02:16:59;1.00;;;0.80;;
56299;SDS011;42209;6.376;-10.782;2023-08-06T02:19:27;2.15;;;0.93;;
56299;SDS011;42209;6.376;-10.782;2023-08-06T02:21:56;2.25;;;0.68;;
56299;SDS011;42209;6.376;-10.782;2023-08-06T02:24:24;0.85;;;0.55;;
56299;SDS011;42209;6.376;-10.782;2023-08-06T02:26:53;2.75;;;0.60;;
56299;SDS011;42209;6.376;-10.782;2023-08-06T02:31:50;1.35;;;0.98;;
56299;SDS011;42209;6.376;-10.782;2023-08-06T02:36:48;1.20;;;0.68;;
56299;SDS011;42209;6.376;-10.782;2023-08-06T02:39:16;1.15;;;0.73;;
56299;SDS011;42209;6.376;-10.782;2023-08-06T02:41:44;1.20;;;0.60;;
56299;SDS011;42209;6.376;-10.782;2023-08-06T02:44:13;0.93;;;0.70;;
56299;SDS011;42209;6.376;-10.782;2023-08-06T02:46:44;1.70;;;0.50;;
56299;SDS011;42209;6.376;-10.782;2023-08-06T02:49:12;1.23;;;0.57;;
56299;SDS011;42209;6.376;-10.782;2023-08-06T02:51:41;0.80;;;0.50;;
56299;SDS011;42209;6.376;-10.782;2023-08-06T02:54:12;0.70;;;0.45;;
56299;SDS011;42209;6.376;-10.782;2023-08-06T02:59:18;1.98;;;1.10;;
56299;SDS011;42209;6.376;-10.782;2023-08-06T03:02:03;2.17;;;0.63;;
56299;SDS011;42209;6.376;-10.782;2023-08-06T03:04:52;1.60;;;0.75;;
56299;SDS011;42209;6.376;-10.782;2023-08-06T03:07:24;2.03;;;0.82;;
56299;SDS011;42209;6.376;-10.782;2023-08-06T03:09:59;1.60;;;0.73;;
56299;SDS011;42209;6.376;-10.782;2023-08-06T03:12:28;1.38;;;0.88;;
56299;SDS011;42209;6.376;-10.782;2023-08-06T03:14:58;1.55;;;0.60;;
56299;SDS011;42209;6.376;-10.782;2023-08-06T03:19:56;1.23;;;0.52;;
56299;SDS011;42209;6.376;-10.782;2023-08-06T03:22:25;0.98;;;0.60;;
56299;SDS011;42209;6.376;-10.782;2023-08-06T03:24:54;2.45;;;0.98;;
56299;SDS011;42209;6.376;-10.782;2023-08-06T03:27:24;1.95;;;0.70;;
56299;SDS011;42209;6.376;-10.782;2023-08-06T03:32:25;1.10;;;0.57;;
56299;SDS011;42209;6.376;-10.782;2023-08-06T03:34:54;3.08;;;0.55;;
56299;SDS011;42209;6.376;-10.782;2023-08-06T03:37:26;2.50;;;0.45;;
56299;SDS011;42209;6.376;-10.782;2023-08-06T03:39:54;1.00;;;0.50;;
56299;SDS011;42209;6.376;-10.782;2023-08-06T03:42:23;2.13;;;0.80;;
56299;SDS011;42209;6.376;-10.782;2023-08-06T03:44:51;2.72;;;0.80;;
56299;SDS011;42209;6.376;-10.782;2023-08-06T03:47:20;1.13;;;0.50;;
56299;SDS011;42209;6.376;-10.782;2023-08-06T03:51:29;1.70;;;0.60;;
56299;SDS011;42209;6.376;-10.782;2023-08-06T03:56:25;1.52;;;0.88;;
56299;SDS011;42209;6.376;-10.782;2023-08-06T03:58:54;2.13;;;0.70;;
56299;SDS011;42209;6.376;-10.782;2023-08-06T04:01:23;1.20;;;0.70;;
56299;SDS011;42209;6.376;-10.782;2023-08-06T04:03:53;0.90;;;0.60;;
56299;SDS011;42209;6.376;-10.782;2023-08-06T04:06:21;2.70;;;0.60;;
56299;SDS011;42209;6.376;-10.782;2023-08-06T04:08:50;1.55;;;0.50;;
56299;SDS011;42209;6.376;-10.782;2023-08-06T04:11:18;2.10;;;0.80;;
56299;SDS011;42209;6.376;-10.782;2023-08-06T04:13:46;1.20;;;0.70;;
56299;SDS011;42209;6.376;-10.782;2023-08-06T04:16:16;0.90;;;0.47;;
56299;SDS011;42209;6.376;-10.782;2023-08-06T04:18:46;1.20;;;0.60;;
56299;SDS011;42209;6.376;-10.782;2023-08-06T04:21:15;1.25;;;0.38;;
56299;SDS011;42209;6.376;-10.782;2023-08-06T04:23:44;1.25;;;0.63;;
56299;SDS011;42209;6.376;-10.782;2023-08-06T04:26:13;1.42;;;0.60;;
56299;SDS011;42209;6.376;-10.782;2023-08-06T04:28:43;1.75;;;0.60;;
56299;SDS011;42209;6.376;-10.782;2023-08-06T04:31:12;1.48;;;0.60;;
56299;SDS011;42209;6.376;-10.782;2023-08-06T04:33:42;1.00;;;0.50;;
56299;SDS011;42209;6.376;-10.782;2023-08-06T04:36:14;0.80;;;0.40;;
56299;SDS011;42209;6.376;-10.782;2023-08-06T04:38:44;1.00;;;0.60;;
56299;SDS011;42209;6.376;-10.782;2023-08-06T04:41:14;1.52;;;0.77;;
56299;SDS011;42209;6.376;-10.782;2023-08-06T04:43:42;2.38;;;0.60;;
56299;SDS011;42209;6.376;-10.782;2023-08-06T04:46:11;1.33;;;0.60;;
56299;SDS011;42209;6.376;-10.782;2023-08-06T04:48:39;2.75;;;0.60;;
56299;SDS011;42209;6.376;-10.782;2023-08-06T04:51:08;1.45;;;0.52;;
56299;SDS011;42209;6.376;-10.782;2023-08-06T04:53:36;0.95;;;0.50;;
56299;SDS011;42209;6.376;-10.782;2023-08-06T04:56:05;1.25;;;0.75;;
56299;SDS011;42209;6.376;-10.782;2023-08-06T04:58:34;1.38;;;0.70;;
56299;SDS011;42209;6.376;-10.782;2023-08-06T05:01:06;2.13;;;0.45;;
56299;SDS011;42209;6.376;-10.782;2023-08-06T05:06:02;2.17;;;0.60;;
56299;SDS011;42209;6.376;-10.782;2023-08-06T05:08:31;1.70;;;0.50;;
56299;SDS011;42209;6.376;-10.782;2023-08-06T05:10:59;0.70;;;0.38;;
56299;SDS011;42209;6.376;-10.782;2023-08-06T05:13:28;1.30;;;0.47;;
56299;SDS011;42209;6.376;-10.782;2023-08-06T05:15:56;2.33;;;0.55;;
56299;SDS011;42209;6.376;-10.782;2023-08-06T05:18:25;1.45;;;0.52;;
56299;SDS011;42209;6.376;-10.782;2023-08-06T05:20:54;1.02;;;0.50;;
56299;SDS011;42209;6.376;-10.782;2023-08-06T05:23:22;1.17;;;0.65;;
56299;SDS011;42209;6.376;-10.782;2023-08-06T05:25:51;1.80;;;0.60;;
56299;SDS011;42209;6.376;-10.782;2023-08-06T05:28:19;1.20;;;0.77;;
56299;SDS011;42209;6.376;-10.782;2023-08-06T05:30:49;1.25;;;0.60;;
56299;SDS011;42209;6.376;-10.782;2023-08-06T05:33:18;0.70;;;0.50;;
56299;SDS011;42209;6.376;-10.782;2023-08-06T05:35:47;1.35;;;0.60;;
56299;SDS011;42209;6.376;-10.782;2023-08-06T05:38:16;1.27;;;0.47;;
56299;SDS011;42209;6.376;-10.782;2023-08-06T05:40:45;1.45;;;0.80;;
56299;SDS011;42209;6.376;-10.782;2023-08-06T05:43:13;2.28;;;0.80;;
56299;SDS011;42209;6.376;-10.782;2023-08-06T05:48:14;1.40;;;0.30;;
56299;SDS011;42209;6.376;-10.782;2023-08-06T05:50:42;1.10;;;0.50;;
56299;SDS011;42209;6.376;-10.782;2023-08-06T05:55:39;0.88;;;0.32;;
56299;SDS011;42209;6.376;-10.782;2023-08-06T05:58:07;2.47;;;0.40;;
56299;SDS011;42209;6.376;-10.782;2023-08-06T06:00:36;0.63;;;0.35;;
56299;SDS011;42209;6.376;-10.782;2023-08-06T06:03:05;1.30;;;0.68;;
56299;SDS011;42209;6.376;-10.782;2023-08-06T06:05:33;0.82;;;0.40;;
56299;SDS011;42209;6.376;-10.782;2023-08-06T06:08:01;1.30;;;0.50;;
56299;SDS011;42209;6.376;-10.782;2023-08-06T06:12:58;1.02;;;0.60;;
56299;SDS011;42209;6.376;-10.782;2023-08-06T06:15:26;1.73;;;0.30;;
56299;SDS011;42209;6.376;-10.782;2023-08-06T06:17:55;1.35;;;0.43;;
56299;SDS011;42209;6.376;-10.782;2023-08-06T06:20:23;0.95;;;0.50;;
56299;SDS011;42209;6.376;-10.782;2023-08-06T06:22:52;1.05;;;0.40;;
56299;SDS011;42209;6.376;-10.782;2023-08-06T06:25:20;1.20;;;0.38;;
56299;SDS011;42209;6.376;-10.782;2023-08-06T06:27:49;1.00;;;0.30;;
56299;SDS011;42209;6.376;-10.782;2023-08-06T06:30:17;1.20;;;0.50;;
56299;SDS011;42209;6.376;-10.782;2023-08-06T06:32:46;0.85;;;0.70;;
56299;SDS011;42209;6.376;-10.782;2023-08-06T06:35:14;0.60;;;0.40;;
56299;SDS011;42209;6.376;-10.782;2023-08-06T06:37:43;1.30;;;0.60;;
56299;SDS011;42209;6.376;-10.782;2023-08-06T06:40:11;1.00;;;0.35;;
56299;SDS011;42209;6.376;-10.782;2023-08-06T06:42:40;1.13;;;0.40;;
56299;SDS011;42209;6.376;-10.782;2023-08-06T06:45:09;0.80;;;0.20;;
56299;SDS011;42209;6.376;-10.782;2023-08-06T06:47:38;1.15;;;0.40;;
56299;SDS011;42209;6.376;-10.782;2023-08-06T06:50:07;0.63;;;0.30;;
56299;SDS011;42209;6.376;-10.782;2023-08-06T06:52:36;1.45;;;0.40;;
56299;SDS011;42209;6.376;-10.782;2023-08-06T06:55:04;2.60;;;0.55;;
56299;SDS011;42209;6.376;-10.782;2023-08-06T07:00:01;2.13;;;0.50;;
56299;SDS011;42209;6.376;-10.782;2023-08-06T07:02:33;0.93;;;0.60;;
56299;SDS011;42209;6.376;-10.782;2023-08-06T07:05:04;1.05;;;0.40;;
56299;SDS011;42209;6.376;-10.782;2023-08-06T07:07:33;0.90;;;0.50;;
56299;SDS011;42209;6.376;-10.782;2023-08-06T07:10:02;0.82;;;0.40;;
56299;SDS011;42209;6.376;-10.782;2023-08-06T07:12:31;1.60;;;0.30;;
56299;SDS011;42209;6.376;-10.782;2023-08-06T07:15:00;1.65;;;0.55;;
56299;SDS011;42209;6.376;-10.782;2023-08-06T07:17:30;0.90;;;0.50;;
56299;SDS011;42209;6.376;-10.782;2023-08-06T07:19:58;1.08;;;0.60;;
56299;SDS011;42209;6.376;-10.782;2023-08-06T07:22:28;1.95;;;0.40;;
56299;SDS011;42209;6.376;-10.782;2023-08-06T07:24:56;0.75;;;0.38;;
56299;SDS011;42209;6.376;-10.782;2023-08-06T07:27:25;1.48;;;0.40;;
56299;SDS011;42209;6.376;-10.782;2023-08-06T07:29:53;0.88;;;0.35;;
56299;SDS011;42209;6.376;-10.782;2023-08-06T07:32:22;1.13;;;0.52;;
56299;SDS011;42209;6.376;-10.782;2023-08-06T07:34:50;0.90;;;0.47;;
56299;SDS011;42209;6.376;-10.782;2023-08-06T07:37:19;1.30;;;0.63;;
56299;SDS011;42209;6.376;-10.782;2023-08-06T07:39:47;1.42;;;0.43;;
56299;SDS011;42209;6.376;-10.782;2023-08-06T07:42:16;0.80;;;0.30;;
56299;SDS011;42209;6.376;-10.782;2023-08-06T07:44:54;0.95;;;0.50;;
56299;SDS011;42209;6.376;-10.782;2023-08-06T07:47:24;1.67;;;0.93;;
56299;SDS011;42209;6.376;-10.782;2023-08-06T07:52:20;1.45;;;0.60;;
56299;SDS011;42209;6.376;-10.782;2023-08-06T07:54:49;0.80;;;0.55;;
56299;SDS011;42209;6.376;-10.782;2023-08-06T07:57:17;1.52;;;0.52;;
56299;SDS011;42209;6.376;-10.782;2023-08-06T07:59:46;1.58;;;0.50;;
56299;SDS011;42209;6.376;-10.782;2023-08-06T08:04:43;2.72;;;0.93;;
56299;SDS011;42209;6.376;-10.782;2023-08-06T08:07:11;1.10;;;0.70;;
56299;SDS011;42209;6.376;-10.782;2023-08-06T08:09:39;1.35;;;0.57;;
56299;SDS011;42209;6.376;-10.782;2023-08-06T08:12:08;2.65;;;0.60;;
56299;SDS011;42209;6.376;-10.782;2023-08-06T08:14:36;1.08;;;0.77;;
56299;SDS011;42209;6.376;-10.782;2023-08-06T08:17:05;1.98;;;0.70;;
56299;SDS011;42209;6.376;-10.782;2023-08-06T08:19:34;2.38;;;0.60;;
56299;SDS011;42209;6.376;-10.782;2023-08-06T08:22:02;1.00;;;0.60;;
56299;SDS011;42209;6.376;-10.782;2023-08-06T08:24:31;1.25;;;0.50;;
56299;SDS011;42209;6.376;-10.782;2023-08-06T08:26:59;1.42;;;0.55;;
56299;SDS011;42209;6.376;-10.782;2023-08-06T08:29:28;2.45;;;0.40;;
56299;SDS011;42209;6.376;-10.782;2023-08-06T08:34:25;1.60;;;0.63;;
56299;SDS011;42209;6.376;-10.782;2023-08-06T08:36:54;1.20;;;0.57;;
56299;SDS011;42209;6.376;-10.782;2023-08-06T08:39:22;0.98;;;0.60;;
56299;SDS011;42209;6.376;-10.782;2023-08-06T08:41:51;1.10;;;0.70;;
56299;SDS011;42209;6.376;-10.782;2023-08-06T08:44:20;3.40;;;0.77;;
56299;SDS011;42209;6.376;-10.782;2023-08-06T08:49:17;1.73;;;0.60;;
56299;SDS011;42209;6.376;-10.782;2023-08-06T08:51:48;1.55;;;0.95;;
56299;SDS011;42209;6.376;-10.782;2023-08-06T08:54:21;2.90;;;1.25;;
56299;SDS011;42209;6.376;-10.782;2023-08-06T08:56:51;2.47;;;0.77;;
56299;SDS011;42209;6.376;-10.782;2023-08-06T08:59:20;1.25;;;0.55;;
56299;SDS011;42209;6.376;-10.782;2023-08-06T09:01:48;1.80;;;0.93;;
56299;SDS011;42209;6.376;-10.782;2023-08-06T09:04:18;1.77;;;0.85;;
56299;SDS011;42209;6.376;-10.782;2023-08-06T09:06:50;1.13;;;0.65;;
56299;SDS011;42209;6.376;-10.782;2023-08-06T09:11:54;1.50;;;0.70;;
56299;SDS011;42209;6.376;-10.782;2023-08-06T09:14:27;1.10;;;0.50;;
56299;SDS011;42209;6.376;-10.782;2023-08-06T09:19:24;1.73;;;0.88;;
56299;SDS011;42209;6.376;-10.782;2023-08-06T09:21:55;1.35;;;0.95;;
56299;SDS011;42209;6.376;-10.782;2023-08-06T09:24:24;1.38;;;1.05;;
56299;SDS011;42209;6.376;-10.782;2023-08-06T09:26:53;1.55;;;0.95;;
56299;SDS011;42209;6.376;-10.782;2023-08-06T09:29:21;1.65;;;0.93;;
56299;SDS011;42209;6.376;-10.782;2023-08-06T09:31:50;1.67;;;0.60;;
56299;SDS011;42209;6.376;-10.782;2023-08-06T09:34:20;2.35;;;0.70;;
56299;SDS011;42209;6.376;-10.782;2023-08-06T09:36:51;2.45;;;1.08;;
56299;SDS011;42209;6.376;-10.782;2023-08-06T09:39:21;1.27;;;0.70;;
56299;SDS011;42209;6.376;-10.782;2023-08-06T09:41:58;2.28;;;0.82;;
56299;SDS011;42209;6.376;-10.782;2023-08-06T09:44:29;1.63;;;0.80;;
56299;SDS011;42209;6.376;-10.782;2023-08-06T09:47:01;1.77;;;1.20;;
56299;SDS011;42209;6.376;-10.782;2023-08-06T09:52:02;1.48;;;0.73;;
56299;SDS011;42209;6.376;-10.782;2023-08-06T09:54:32;2.15;;;0.70;;
56299;SDS011;42209;6.376;-10.782;2023-08-06T09:57:04;2.38;;;0.93;;
56299;SDS011;42209;6.376;-10.782;2023-08-06T09:59:33;1.98;;;0.90;;
56299;SDS011;42209;6.376;-10.782;2023-08-06T10:02:03;1.65;;;0.88;;
56299;SDS011;42209;6.376;-10.782;2023-08-06T10:04:42;1.98;;;0.90;;
56299;SDS011;42209;6.376;-10.782;2023-08-06T10:07:21;1.50;;;0.73;;
56299;SDS011;42209;6.376;-10.782;2023-08-06T10:09:50;1.50;;;1.00;;
56299;SDS011;42209;6.376;-10.782;2023-08-06T10:12:18;2.80;;;0.90;;
56299;SDS011;42209;6.376;-10.782;2023-08-06T10:14:47;2.30;;;0.70;;
56299;SDS011;42209;6.376;-10.782;2023-08-06T10:17:17;4.60;;;0.93;;
56299;SDS011;42209;6.376;-10.782;2023-08-06T10:22:15;2.83;;;1.17;;
56299;SDS011;42209;6.376;-10.782;2023-08-06T10:24:52;3.10;;;1.05;;
56299;SDS011;42209;6.376;-10.782;2023-08-06T10:27:29;11.23;;;4.50;;
56299;SDS011;42209;6.376;-10.782;2023-08-06T10:32:56;26.10;;;10.25;;
56299;SDS011;42209;6.376;-10.782;2023-08-06T10:35:38;21.90;;;8.95;;
56299;SDS011;42209;6.376;-10.782;2023-08-06T10:38:17;23.85;;;8.98;;
56299;SDS011;42209;6.376;-10.782;2023-08-06T10:41:00;21.23;;;9.15;;
56299;SDS011;42209;6.376;-10.782;2023-08-06T10:43:33;20.10;;;8.85;;
56299;SDS011;42209;6.376;-10.782;2023-08-06T10:46:03;14.70;;;7.80;;
56299;SDS011;42209;6.376;-10.782;2023-08-06T10:48:38;19.02;;;8.27;;
56299;SDS011;42209;6.376;-10.782;2023-08-06T10:51:09;18.95;;;8.23;;
56299;SDS011;42209;6.376;-10.782;2023-08-06T10:53:42;12.55;;;7.03;;
56299;SDS011;42209;6.376;-10.782;2023-08-06T10:56:19;17.05;;;7.22;;
56299;SDS011;42209;6.376;-10.782;2023-08-06T10:58:50;16.55;;;6.85;;
56299;SDS011;42209;6.376;-10.782;2023-08-06T11:04:00;13.77;;;6.68;;
56299;SDS011;42209;6.376;-10.782;2023-08-06T11:06:30;14.95;;;7.32;;
56299;SDS011;42209;6.376;-10.782;2023-08-06T11:08:58;17.77;;;7.35;;
56299;SDS011;42209;6.376;-10.782;2023-08-06T11:11:29;16.20;;;6.47;;
56299;SDS011;42209;6.376;-10.782;2023-08-06T11:13:57;17.83;;;7.88;;
56299;SDS011;42209;6.376;-10.782;2023-08-06T11:16:26;14.65;;;6.60;;
56299;SDS011;42209;6.376;-10.782;2023-08-06T11:18:55;14.85;;;6.82;;
56299;SDS011;42209;6.376;-10.782;2023-08-06T11:21:24;14.23;;;6.47;;
56299;SDS011;42209;6.376;-10.782;2023-08-06T11:23:53;14.23;;;5.72;;
56299;SDS011;42209;6.376;-10.782;2023-08-06T11:26:22;11.40;;;5.35;;
56299;SDS011;42209;6.376;-10.782;2023-08-06T11:28:51;11.80;;;5.63;;
56299;SDS011;42209;6.376;-10.782;2023-08-06T11:31:21;10.73;;;5.90;;
56299;SDS011;42209;6.376;-10.782;2023-08-06T11:33:52;9.00;;;5.47;;
56299;SDS011;42209;6.376;-10.782;2023-08-06T11:36:34;12.35;;;5.97;;
56299;SDS011;42209;6.376;-10.782;2023-08-06T11:39:14;9.73;;;5.07;;
56299;SDS011;42209;6.376;-10.782;2023-08-06T11:44:11;11.77;;;5.65;;
56299;SDS011;42209;6.376;-10.782;2023-08-06T11:46:50;10.38;;;5.50;;
56299;SDS011;42209;6.376;-10.782;2023-08-06T11:55:06;8.13;;;3.78;;
56299;SDS011;42209;6.376;-10.782;2023-08-06T11:57:38;12.23;;;4.47;;
56299;SDS011;42209;6.376;-10.782;2023-08-06T12:00:11;9.57;;;5.15;;
56299;SDS011;42209;6.376;-10.782;2023-08-06T12:02:44;6.57;;;3.78;;
56299;SDS011;42209;6.376;-10.782;2023-08-06T12:07:50;10.93;;;4.55;;
56299;SDS011;42209;6.376;-10.782;2023-08-06T12:10:21;8.48;;;5.30;;
56299;SDS011;42209;6.376;-10.782;2023-08-06T12:12:50;8.05;;;5.20;;
56299;SDS011;42209;6.376;-10.782;2023-08-06T12:15:18;9.05;;;4.00;;
56299;SDS011;42209;6.376;-10.782;2023-08-06T12:17:48;8.82;;;5.20;;
56299;SDS011;42209;6.376;-10.782;2023-08-06T12:20:18;7.82;;;4.25;;
56299;SDS011;42209;6.376;-10.782;2023-08-06T12:22:46;6.88;;;3.65;;
56299;SDS011;42209;6.376;-10.782;2023-08-06T12:25:15;7.45;;;3.40;;
56299;SDS011;42209;6.376;-10.782;2023-08-06T12:27:44;8.60;;;4.28;;
56299;SDS011;42209;6.376;-10.782;2023-08-06T12:30:13;6.70;;;3.72;;
56299;SDS011;42209;6.376;-10.782;2023-08-06T12:32:42;9.95;;;4.60;;
56299;SDS011;42209;6.376;-10.782;2023-08-06T12:35:10;5.80;;;3.33;;
56299;SDS011;42209;6.376;-10.782;2023-08-06T12:37:39;7.20;;;3.58;;
56299;SDS011;42209;6.376;-10.782;2023-08-06T12:40:07;5.03;;;3.40;;
56299;SDS011;42209;6.376;-10.782;2023-08-06T12:42:57;6.60;;;2.83;;
56299;SDS011;42209;6.376;-10.782;2023-08-06T12:45:30;4.90;;;3.05;;
56299;SDS011;42209;6.376;-10.782;2023-08-06T12:47:58;5.60;;;2.92;;
56299;SDS011;42209;6.376;-10.782;2023-08-06T12:52:56;5.10;;;2.90;;
56299;SDS011;42209;6.376;-10.782;2023-08-06T12:55:24;4.22;;;2.92;;
56299;SDS011;42209;6.376;-10.782;2023-08-06T13:00:27;4.95;;;2.65;;
56299;SDS011;42209;6.376;-10.782;2023-08-06T13:02:57;4.43;;;2.10;;
56299;SDS011;42209;6.376;-10.782;2023-08-06T13:05:36;6.05;;;2.97;;
56299;SDS011;42209;6.376;-10.782;2023-08-06T13:08:04;4.15;;;2.55;;
56299;SDS011;42209;6.376;-10.782;2023-08-06T13:13:01;3.40;;;2.33;;
56299;SDS011;42209;6.376;-10.782;2023-08-06T13:15:30;4.55;;;2.58;;
56299;SDS011;42209;6.376;-10.782;2023-08-06T13:17:58;3.13;;;2.45;;
56299;SDS011;42209;6.376;-10.782;2023-08-06T13:20:29;4.00;;;2.58;;
56299;SDS011;42209;6.376;-10.782;2023-08-06T13:22:58;4.07;;;3.05;;
56299;SDS011;42209;6.376;-10.782;2023-08-06T13:25:27;4.00;;;2.47;;
56299;SDS011;42209;6.376;-10.782;2023-08-06T13:27:56;2.60;;;1.83;;
56299;SDS011;42209;6.376;-10.782;2023-08-06T13:30:24;5.45;;;1.83;;
56299;SDS011;42209;6.376;-10.782;2023-08-06T13:32:53;3.08;;;2.05;;
56299;SDS011;42209;6.376;-10.782;2023-08-06T13:35:22;2.13;;;1.75;;
56299;SDS011;42209;6.376;-10.782;2023-08-06T13:37:51;3.95;;;2.28;;
56299;SDS011;42209;6.376;-10.782;2023-08-06T13:40:19;3.60;;;1.80;;
56299;SDS011;42209;6.376;-10.782;2023-08-06T13:42:48;4.63;;;2.08;;
56299;SDS011;42209;6.376;-10.782;2023-08-06T13:45:16;6.68;;;1.83;;
56299;SDS011;42209;6.376;-10.782;2023-08-06T13:47:45;3.88;;;1.40;;
56299;SDS011;42209;6.376;-10.782;2023-08-06T13:50:13;2.67;;;1.45;;
56299;SDS011;42209;6.376;-10.782;2023-08-06T13:52:42;3.97;;;1.98;;
56299;SDS011;42209;6.376;-10.782;2023-08-06T13:55:11;2.35;;;1.42;;
56299;SDS011;42209;6.376;-10.782;2023-08-06T13:57:40;4.10;;;1.60;;
56299;SDS011;42209;6.376;-10.782;2023-08-06T14:00:08;3.33;;;1.42;;
56299;SDS011;42209;6.376;-10.782;2023-08-06T14:02:41;4.15;;;2.25;;
56299;SDS011;42209;6.376;-10.782;2023-08-06T14:07:38;4.72;;;2.05;;
56299;SDS011;42209;6.376;-10.782;2023-08-06T14:10:07;8.07;;;2.10;;
56299;SDS011;42209;6.376;-10.782;2023-08-06T14:15:04;3.67;;;1.70;;
56299;SDS011;42209;6.376;-10.782;2023-08-06T14:20:02;3.05;;;1.77;;
56299;SDS011;42209;6.376;-10.782;2023-08-06T14:22:31;4.78;;;1.85;;
56299;SDS011;42209;6.376;-10.782;2023-08-06T14:24:59;3.25;;;1.50;;
56299;SDS011;42209;6.376;-10.782;2023-08-06T14:29:56;3.90;;;1.83;;
56299;SDS011;42209;6.376;-10.782;2023-08-06T14:34:53;2.20;;;1.33;;
56299;SDS011;42209;6.376;-10.782;2023-08-06T14:39:52;3.97;;;1.48;;
56299;SDS011;42209;6.376;-10.782;2023-08-06T14:42:21;4.78;;;1.63;;
56299;SDS011;42209;6.376;-10.782;2023-08-06T14:47:18;4.82;;;1.70;;
56299;SDS011;42209;6.376;-10.782;2023-08-06T14:49:46;5.05;;;1.60;;
56299;SDS011;42209;6.376;-10.782;2023-08-06T14:52:15;2.10;;;1.10;;
56299;SDS011;42209;6.376;-10.782;2023-08-06T14:54:43;5.00;;;1.83;;
56299;SDS011;42209;6.376;-10.782;2023-08-06T14:57:12;3.75;;;1.98;;
56299;SDS011;42209;6.376;-10.782;2023-08-06T14:59:41;3.05;;;1.75;;
56299;SDS011;42209;6.376;-10.782;2023-08-06T15:02:10;4.45;;;1.75;;
56299;SDS011;42209;6.376;-10.782;2023-08-06T15:04:38;5.78;;;1.25;;
56299;SDS011;42209;6.376;-10.782;2023-08-06T15:09:35;3.47;;;1.25;;
56299;SDS011;42209;6.376;-10.782;2023-08-06T15:12:21;3.70;;;1.42;;
56299;SDS011;42209;6.376;-10.782;2023-08-06T15:14:50;4.70;;;1.35;;
56299;SDS011;42209;6.376;-10.782;2023-08-06T15:17:18;3.63;;;1.48;;
56299;SDS011;42209;6.376;-10.782;2023-08-06T15:19:47;2.22;;;1.30;;
56299;SDS011;42209;6.376;-10.782;2023-08-06T15:22:15;2.63;;;1.20;;
56299;SDS011;42209;6.376;-10.782;2023-08-06T15:24:44;2.63;;;1.05;;
56299;SDS011;42209;6.376;-10.782;2023-08-06T15:27:14;2.63;;;1.15;;
56299;SDS011;42209;6.376;-10.782;2023-08-06T15:29:42;2.42;;;1.13;;
56299;SDS011;42209;6.376;-10.782;2023-08-06T15:34:39;2.63;;;1.35;;
56299;SDS011;42209;6.376;-10.782;2023-08-06T15:37:07;1.42;;;1.20;;
56299;SDS011;42209;6.376;-10.782;2023-08-06T15:42:04;2.40;;;1.07;;
56299;SDS011;42209;6.376;-10.782;2023-08-06T15:44:33;2.25;;;1.05;;
56299;SDS011;42209;6.376;-10.782;2023-08-06T15:47:01;2.00;;;0.85;;
56299;SDS011;42209;6.376;-10.782;2023-08-06T15:49:30;3.40;;;1.10;;
56299;SDS011;42209;6.376;-10.782;2023-08-06T15:52:06;1.75;;;0.93;;
56299;SDS011;42209;6.376;-10.782;2023-08-06T15:54:34;1.65;;;0.88;;
56299;SDS011;42209;6.376;-10.782;2023-08-06T15:57:03;2.90;;;1.10;;
56299;SDS011;42209;6.376;-10.782;2023-08-06T15:59:32;3.10;;;1.25;;
56299;SDS011;42209;6.376;-10.782;2023-08-06T16:02:01;3.05;;;1.42;;
56299;SDS011;42209;6.376;-10.782;2023-08-06T16:04:30;1.83;;;0.93;;
56299;SDS011;42209;6.376;-10.782;2023-08-06T16:06:59;2.00;;;1.20;;
56299;SDS011;42209;6.376;-10.782;2023-08-06T16:09:27;1.92;;;1.20;;
56299;SDS011;42209;6.376;-10.782;2023-08-06T16:11:56;4.10;;;1.38;;
56299;SDS011;42209;6.376;-10.782;2023-08-06T16:14:24;2.17;;;1.05;;
56299;SDS011;42209;6.376;-10.782;2023-08-06T16:16:53;2.95;;;0.80;;
56299;SDS011;42209;6.376;-10.782;2023-08-06T16:19:22;2.70;;;0.98;;
56299;SDS011;42209;6.376;-10.782;2023-08-06T16:21:50;2.03;;;1.30;;
56299;SDS011;42209;6.376;-10.782;2023-08-06T16:24:19;2.85;;;1.52;;
56299;SDS011;42209;6.376;-10.782;2023-08-06T16:26:47;1.17;;;0.80;;
56299;SDS011;42209;6.376;-10.782;2023-08-06T16:29:16;2.65;;;1.42;;
56299;SDS011;42209;6.376;-10.782;2023-08-06T16:31:44;2.20;;;1.00;;
56299;SDS011;42209;6.376;-10.782;2023-08-06T16:34:13;2.10;;;1.02;;
56299;SDS011;42209;6.376;-10.782;2023-08-06T16:36:41;2.28;;;1.65;;
56299;SDS011;42209;6.376;-10.782;2023-08-06T16:39:10;3.45;;;1.35;;
56299;SDS011;42209;6.376;-10.782;2023-08-06T16:41:38;1.95;;;1.25;;
56299;SDS011;42209;6.376;-10.782;2023-08-06T16:44:07;2.22;;;1.13;;